createdAt,value
2022-09-21T00:00:12.594Z,11.66
2022-09-21T00:02:38.996Z,11.64
2022-09-21T00:05:06.579Z,11.64
2022-09-21T00:07:32.955Z,11.58
2022-09-21T00:09:59.342Z,11.57
2022-09-21T00:12:25.717Z,11.57
2022-09-21T00:14:52.421Z,11.56
2022-09-21T00:17:18.806Z,11.66
2022-09-21T00:19:45.179Z,11.64
2022-09-21T00:22:11.542Z,11.61
2022-09-21T00:24:37.953Z,11.62
2022-09-21T00:27:04.469Z,11.59
2022-09-21T00:29:30.951Z,11.56
2022-09-21T00:31:57.389Z,11.52
2022-09-21T00:34:24.771Z,11.51
2022-09-21T00:36:51.328Z,11.54
2022-09-21T00:39:17.672Z,11.54
2022-09-21T00:41:44.256Z,11.53
2022-09-21T00:44:32.930Z,11.53
2022-09-21T00:47:06.692Z,11.53
2022-09-21T00:49:34.393Z,11.57
2022-09-21T00:52:04.270Z,11.55
2022-09-21T00:54:36.920Z,11.49
2022-09-21T00:57:03.877Z,11.50
2022-09-21T00:59:33.978Z,11.47
2022-09-21T01:02:00.661Z,11.47
2022-09-21T01:04:28.467Z,11.40
2022-09-21T01:06:58.261Z,11.35
2022-09-21T01:09:25.615Z,11.35
2022-09-21T01:12:11.036Z,11.30
2022-09-21T01:14:53.097Z,11.24
2022-09-21T01:17:42.711Z,11.15
2022-09-21T01:20:20.187Z,11.13
2022-09-21T01:22:58.800Z,11.04
2022-09-21T01:26:06.572Z,11.00
2022-09-21T01:28:54.704Z,11.04
2022-09-21T01:31:26.999Z,10.97
2022-09-21T01:33:58.410Z,10.91
2022-09-21T01:36:29.532Z,10.89
2022-09-21T01:39:02.071Z,10.90
2022-09-21T01:41:32.339Z,10.94
2022-09-21T01:44:08.496Z,10.93
2022-09-21T01:46:37.499Z,10.91
2022-09-21T01:49:12.980Z,10.82
2022-09-21T01:51:44.391Z,10.82
2022-09-21T01:54:21.688Z,10.78
2022-09-21T01:57:01.070Z,10.81
2022-09-21T01:59:50.967Z,10.60
2022-09-21T02:02:25.419Z,10.66
2022-09-21T02:04:52.028Z,10.61
2022-09-21T02:07:19.192Z,10.55
2022-09-21T02:09:47.503Z,10.56
2022-09-21T02:12:18.748Z,10.54
2022-09-21T02:14:46.185Z,10.56
2022-09-21T02:17:34.585Z,10.58
2022-09-21T02:20:31.701Z,10.60
2022-09-21T02:23:12.813Z,10.62
2022-09-21T02:25:42.188Z,10.61
2022-09-21T02:28:19.911Z,10.57
2022-09-21T02:30:55.684Z,10.52
2022-09-21T02:33:32.331Z,10.44
2022-09-21T02:36:20.825Z,10.50
2022-09-21T02:39:10.972Z,10.39
2022-09-21T02:41:45.571Z,10.43
2022-09-21T02:44:23.497Z,10.34
2022-09-21T02:46:54.247Z,10.43
2022-09-21T02:49:31.401Z,10.47
2022-09-21T02:52:01.558Z,10.42
2022-09-21T02:54:32.780Z,10.33
2022-09-21T02:57:01.647Z,10.30
2022-09-21T02:59:28.554Z,10.23
2022-09-21T03:01:58.065Z,10.26
2022-09-21T03:04:25.755Z,10.22
2022-09-21T03:06:52.189Z,10.18
2022-09-21T03:09:18.598Z,10.19
2022-09-21T03:11:44.956Z,10.08
2022-09-21T03:14:11.353Z,10.01
2022-09-21T03:16:38.768Z,9.98
2022-09-21T03:19:05.753Z,10.02
2022-09-21T03:21:32.208Z,10.09
2022-09-21T03:23:58.574Z,10.02
2022-09-21T03:26:24.913Z,10.00
2022-09-21T03:28:53.488Z,10.01
2022-09-21T03:31:20.251Z,10.02
2022-09-21T03:33:46.725Z,10.02
2022-09-21T03:36:13.062Z,10.14
2022-09-21T03:38:39.524Z,10.13
2022-09-21T03:41:06.165Z,10.01
2022-09-21T03:43:32.905Z,9.93
2022-09-21T03:45:59.601Z,9.99
2022-09-21T03:48:26.132Z,9.89
2022-09-21T03:50:52.567Z,9.98
2022-09-21T03:53:18.915Z,9.84
2022-09-21T03:55:45.338Z,9.86
2022-09-21T03:58:11.720Z,9.84
2022-09-21T04:00:39.148Z,9.82
2022-09-21T04:03:05.554Z,9.83
2022-09-21T04:05:32.350Z,9.70
2022-09-21T04:07:58.886Z,9.67
2022-09-21T04:10:32.691Z,9.64
2022-09-21T04:13:02.642Z,9.71
2022-09-21T04:15:29.565Z,9.67
2022-09-21T04:17:56.706Z,9.61
2022-09-21T04:20:23.646Z,9.66
2022-09-21T04:22:51.508Z,9.70
2022-09-21T04:25:18.081Z,9.56
2022-09-21T04:27:44.512Z,9.62
2022-09-21T04:30:13.243Z,9.50
2022-09-21T04:32:39.892Z,9.52
2022-09-21T04:35:06.722Z,9.56
2022-09-21T04:37:33.517Z,9.60
2022-09-21T04:40:00.224Z,9.59
2022-09-21T04:42:27.577Z,9.58
2022-09-21T04:44:54.057Z,9.55
2022-09-21T04:47:23.384Z,9.59
2022-09-21T04:49:49.947Z,9.71
2022-09-21T04:52:19.134Z,9.53
2022-09-21T04:54:46.370Z,9.45
2022-09-21T04:57:13.543Z,9.43
2022-09-21T04:59:39.897Z,9.29
2022-09-21T05:02:06.396Z,9.36
2022-09-21T05:04:32.769Z,9.35
2022-09-21T05:06:59.418Z,9.27
2022-09-21T05:09:44.288Z,9.16
2022-09-21T05:12:10.721Z,9.21
2022-09-21T05:14:37.387Z,9.27
2022-09-21T05:17:03.825Z,9.22
2022-09-21T05:19:30.203Z,9.20
2022-09-21T05:21:56.558Z,9.20
2022-09-21T05:24:22.908Z,9.19
2022-09-21T05:26:49.256Z,9.39
2022-09-21T05:29:15.923Z,9.36
2022-09-21T05:31:49.632Z,9.44
2022-09-21T05:34:44.136Z,9.45
2022-09-21T05:37:17.823Z,9.51
2022-09-21T05:39:44.568Z,9.63
2022-09-21T05:42:11.552Z,9.46
2022-09-21T05:44:38.242Z,9.36
2022-09-21T05:47:29.004Z,9.39
2022-09-21T05:49:55.331Z,9.53
2022-09-21T05:52:28.116Z,9.53
2022-09-21T05:55:12.333Z,9.47
2022-09-21T05:57:55.013Z,9.38
2022-09-21T06:00:23.275Z,9.46
2022-09-21T06:03:01.652Z,9.50
2022-09-21T06:05:28.135Z,9.45
2022-09-21T06:07:54.514Z,9.45
2022-09-21T06:10:21.121Z,9.54
2022-09-21T06:12:47.620Z,9.58
2022-09-21T06:15:16.451Z,9.65
2022-09-21T06:17:43.293Z,9.61
2022-09-21T06:20:10.225Z,9.55
2022-09-21T06:22:36.622Z,9.60
2022-09-21T06:25:03.125Z,9.64
2022-09-21T06:27:29.822Z,9.67
2022-09-21T06:29:56.336Z,9.64
2022-09-21T06:32:22.709Z,9.58
2022-09-21T06:34:49.888Z,9.62
2022-09-21T06:37:16.364Z,9.71
2022-09-21T06:39:42.710Z,9.73
2022-09-21T06:42:09.160Z,9.79
2022-09-21T06:44:35.530Z,9.74
2022-09-21T06:47:01.906Z,9.72
2022-09-21T06:49:28.778Z,9.75
2022-09-21T06:51:55.868Z,9.65
2022-09-21T06:54:22.317Z,9.72
2022-09-21T06:56:48.755Z,9.82
2022-09-21T06:59:15.114Z,9.94
2022-09-21T07:01:41.578Z,9.93
2022-09-21T07:04:09.519Z,10.02
2022-09-21T07:06:36.072Z,10.12
2022-09-21T07:11:52.201Z,10.38
2022-09-21T07:14:18.566Z,10.38
2022-09-21T07:16:45.173Z,10.37
2022-09-21T07:19:12.047Z,10.29
2022-09-21T07:21:39.003Z,10.32
2022-09-21T07:24:09.479Z,10.32
2022-09-21T07:26:37.720Z,10.42
2022-09-21T07:29:04.124Z,10.55
2022-09-21T07:31:30.551Z,10.63
2022-09-21T07:34:00.462Z,10.68
2022-09-21T07:36:26.841Z,10.68
2022-09-21T07:38:53.931Z,10.81
2022-09-21T07:41:20.637Z,10.88
2022-09-21T07:43:47.225Z,11.02
2022-09-21T07:46:15.147Z,11.12
2022-09-21T07:48:41.844Z,11.29
2022-09-21T07:51:11.509Z,11.48
2022-09-21T07:53:40.198Z,11.79
2022-09-21T07:56:09.339Z,12.32
2022-09-21T07:58:55.838Z,13.02
2022-09-21T08:01:23.386Z,13.68
2022-09-21T08:03:51.093Z,14.29
2022-09-21T08:06:17.750Z,14.91
2022-09-21T08:08:44.378Z,15.35
2022-09-21T08:11:11.788Z,15.16
2022-09-21T08:13:38.183Z,15.08
2022-09-21T08:16:04.696Z,15.78
2022-09-21T08:18:31.134Z,15.93
2022-09-21T08:20:59.586Z,16.08
2022-09-21T08:23:28.983Z,16.23
2022-09-21T08:26:00.425Z,16.60
2022-09-21T08:28:28.025Z,16.85
2022-09-21T08:30:54.719Z,16.87
2022-09-21T08:33:23.843Z,17.09
2022-09-21T08:35:57.232Z,17.37
2022-09-21T08:38:23.711Z,16.97
2022-09-21T08:40:52.524Z,17.56
2022-09-21T08:43:27.546Z,18.12
2022-09-21T08:45:54.846Z,17.48
2022-09-21T08:48:34.459Z,17.79
2022-09-21T08:51:08.095Z,18.06
2022-09-21T08:53:39.000Z,18.31
2022-09-21T08:56:05.598Z,19.05
2022-09-21T08:58:32.858Z,19.12
2022-09-21T09:01:29.585Z,19.45
2022-09-21T09:04:00.442Z,19.65
2022-09-21T09:06:50.196Z,20.18
2022-09-21T09:09:28.565Z,19.60
2022-09-21T09:12:19.865Z,19.87
2022-09-21T09:14:59.101Z,20.48
2022-09-21T09:17:49.927Z,20.40
2022-09-21T09:20:36.431Z,20.77
2022-09-21T09:23:09.859Z,20.32
2022-09-21T09:25:41.833Z,20.54
2022-09-21T09:28:28.142Z,20.64
2022-09-21T09:31:18.397Z,20.58
2022-09-21T09:33:59.277Z,21.08
2022-09-21T09:36:53.902Z,21.37
2022-09-21T09:39:16.943Z,21.48
2022-09-21T09:42:01.594Z,21.42
2022-09-21T09:44:49.816Z,22.11
2022-09-21T09:47:30.164Z,22.57
2022-09-21T09:50:09.329Z,21.74
2022-09-21T09:52:36.561Z,22.36
2022-09-21T09:55:25.898Z,20.48
2022-09-21T09:57:55.718Z,21.79
2022-09-21T10:00:22.902Z,22.75
2022-09-21T10:02:54.673Z,22.25
2022-09-21T10:05:23.033Z,22.62
2022-09-21T10:07:50.402Z,22.66
2022-09-21T10:10:29.086Z,23.75
2022-09-21T10:13:02.925Z,23.59
2022-09-21T10:15:29.921Z,23.49
2022-09-21T10:18:19.017Z,23.05
2022-09-21T10:21:03.049Z,23.56
2022-09-21T10:23:31.466Z,23.14
2022-09-21T10:26:01.670Z,23.47
2022-09-21T10:28:28.692Z,23.66
2022-09-21T10:31:13.191Z,24.00
2022-09-21T10:33:54.828Z,23.35
2022-09-21T10:36:36.656Z,22.16
2022-09-21T10:39:21.103Z,23.57
2022-09-21T10:42:00.370Z,23.35
2022-09-21T10:44:33.158Z,23.76
2022-09-21T10:47:04.296Z,23.71
2022-09-21T10:49:31.410Z,23.57
2022-09-21T10:51:59.373Z,24.21
2022-09-21T10:54:33.135Z,23.95
2022-09-21T10:57:07.860Z,23.97
2022-09-21T10:59:37.251Z,24.70
2022-09-21T11:02:23.577Z,24.52
2022-09-21T11:04:57.221Z,24.48
2022-09-21T11:07:43.835Z,24.15
2022-09-21T11:10:34.663Z,24.31
2022-09-21T11:13:25.918Z,24.60
2022-09-21T11:16:14.025Z,24.36
2022-09-21T11:18:51.378Z,25.28
2022-09-21T11:21:41.419Z,25.10
2022-09-21T11:24:32.916Z,24.75
2022-09-21T11:27:07.959Z,24.28
2022-09-21T11:29:51.074Z,22.65
2022-09-21T11:32:23.183Z,22.13
2022-09-21T11:35:17.340Z,23.07
2022-09-21T11:37:57.589Z,22.47
2022-09-21T11:40:40.455Z,23.27
2022-09-21T11:43:33.005Z,23.27
2022-09-21T11:46:27.222Z,23.59
2022-09-21T11:49:09.055Z,23.77
2022-09-21T11:51:59.419Z,24.67
2022-09-21T11:54:46.602Z,24.56
2022-09-21T11:57:22.370Z,23.65
2022-09-21T12:00:04.321Z,24.31
2022-09-21T12:05:37.816Z,24.25
2022-09-21T12:08:32.043Z,24.18
2022-09-21T12:11:14.039Z,24.50
2022-09-21T12:13:54.391Z,23.37
2022-09-21T12:16:48.134Z,22.57
2022-09-21T12:19:38.326Z,23.19
2022-09-21T12:22:42.655Z,23.87
2022-09-21T12:25:21.772Z,22.72
2022-09-21T12:28:45.617Z,24.05
2022-09-21T12:31:19.961Z,24.11
2022-09-21T12:33:54.080Z,24.72
2022-09-21T12:36:35.041Z,24.40
2022-09-21T12:39:20.566Z,24.29
2022-09-21T12:42:24.427Z,24.26
2022-09-21T12:45:03.325Z,24.80
2022-09-21T12:48:01.699Z,24.00
2022-09-21T12:50:35.977Z,23.62
2022-09-21T12:53:03.935Z,23.69
2022-09-21T12:55:41.552Z,24.18
2022-09-21T12:58:40.664Z,24.01
2022-09-21T13:01:23.072Z,23.43
2022-09-21T13:04:03.557Z,21.86
2022-09-21T13:06:58.585Z,22.99
2022-09-21T13:09:26.940Z,24.14
2022-09-21T13:12:01.726Z,23.90
2022-09-21T13:14:34.689Z,23.79
2022-09-21T13:17:03.266Z,24.58
2022-09-21T13:19:32.404Z,24.17
2022-09-21T13:22:19.885Z,22.97
2022-09-21T13:25:09.277Z,23.11
2022-09-21T13:28:14.936Z,23.83
2022-09-21T13:30:49.558Z,23.81
2022-09-21T13:33:18.673Z,22.90
2022-09-21T13:35:53.815Z,22.89
2022-09-21T13:38:25.659Z,23.25
2022-09-21T13:41:35.438Z,23.35
2022-09-21T13:44:40.917Z,22.90
2022-09-21T13:47:09.154Z,23.00
2022-09-21T13:49:59.759Z,23.25
2022-09-21T13:52:40.292Z,23.82
2022-09-21T13:55:44.054Z,23.10
2022-09-21T13:58:29.449Z,21.01
2022-09-21T14:01:00.138Z,20.53
2022-09-21T14:03:37.195Z,20.83
2022-09-21T14:06:08.926Z,21.63
2022-09-21T14:08:41.892Z,21.01
2022-09-21T14:11:17.883Z,20.21
2022-09-21T14:14:12.063Z,20.37
2022-09-21T14:16:38.356Z,20.26
2022-09-21T14:19:27.548Z,20.59
2022-09-21T14:22:09.473Z,20.10
2022-09-21T14:24:42.675Z,21.06
2022-09-21T14:27:32.709Z,21.26
2022-09-21T14:30:06.783Z,21.26
2022-09-21T14:32:55.945Z,20.74
2022-09-21T14:35:25.495Z,20.17
2022-09-21T14:37:58.220Z,20.53
2022-09-21T14:40:35.132Z,20.44
2022-09-21T14:43:09.502Z,20.34
2022-09-21T14:46:12.254Z,20.23
2022-09-21T14:49:02.770Z,20.07
2022-09-21T14:52:03.860Z,19.73
2022-09-21T14:54:59.087Z,19.58
2022-09-21T14:57:43.219Z,19.66
2022-09-21T15:00:26.613Z,19.55
2022-09-21T15:03:31.202Z,19.06
2022-09-21T15:06:49.604Z,18.74
2022-09-21T15:09:56.668Z,18.72
2022-09-21T15:12:32.018Z,18.84
2022-09-21T15:15:23.368Z,18.76
2022-09-21T15:17:59.764Z,18.69
2022-09-21T15:20:29.536Z,18.72
2022-09-21T15:23:00.625Z,18.83
2022-09-21T15:25:31.229Z,18.74
2022-09-21T15:27:58.206Z,18.68
2022-09-21T15:30:29.442Z,18.77
2022-09-21T15:32:59.161Z,18.34
2022-09-21T15:35:28.091Z,18.62
2022-09-21T15:37:55.904Z,18.67
2022-09-21T15:40:25.955Z,18.71
2022-09-21T15:43:01.638Z,18.79
2022-09-21T15:45:33.872Z,18.60
2022-09-21T15:48:00.693Z,18.55
2022-09-21T15:50:29.318Z,18.67
2022-09-21T15:53:09.119Z,18.50
2022-09-21T15:55:35.800Z,18.52
2022-09-21T15:58:04.283Z,18.41
2022-09-21T16:00:34.149Z,18.42
2022-09-21T16:03:05.605Z,18.42
2022-09-21T16:05:44.128Z,18.36
2022-09-21T16:08:24.072Z,18.28
2022-09-21T16:10:50.658Z,18.26
2022-09-21T16:13:38.701Z,18.24
2022-09-21T16:16:12.018Z,18.19
2022-09-21T16:18:44.451Z,18.08
2022-09-21T16:21:40.335Z,18.09
2022-09-21T16:24:18.722Z,18.02
2022-09-21T16:26:57.790Z,17.91
2022-09-21T16:29:26.969Z,17.91
2022-09-21T16:32:18.688Z,17.84
2022-09-21T16:34:51.170Z,17.74
2022-09-21T16:37:24.153Z,17.62
2022-09-21T16:39:51.667Z,17.60
2022-09-21T16:42:19.208Z,17.47
2022-09-21T16:44:47.019Z,17.48
2022-09-21T16:47:25.377Z,17.39
2022-09-21T16:50:02.516Z,17.35
2022-09-21T16:52:30.528Z,17.21
2022-09-21T16:54:58.507Z,17.06
2022-09-21T16:57:25.879Z,16.95
2022-09-21T16:59:52.447Z,16.88
2022-09-21T17:02:18.883Z,16.88
2022-09-21T17:04:45.650Z,16.81
2022-09-21T17:07:13.042Z,16.67
2022-09-21T17:09:43.401Z,16.60
2022-09-21T17:12:15.451Z,16.65
2022-09-21T17:14:46.438Z,16.52
2022-09-21T17:17:18.296Z,16.42
2022-09-21T17:19:46.575Z,16.34
2022-09-21T17:22:19.629Z,16.30
2022-09-21T17:24:52.116Z,16.34
2022-09-21T17:27:21.613Z,16.28
2022-09-21T17:29:49.699Z,16.12
2022-09-21T17:32:21.465Z,16.18
2022-09-21T17:34:54.535Z,16.11
2022-09-21T17:37:21.820Z,16.06
2022-09-21T17:39:48.491Z,16.04
2022-09-21T17:42:21.056Z,15.99
2022-09-21T17:45:15.393Z,15.88
2022-09-21T17:47:42.316Z,15.67
2022-09-21T17:50:20.331Z,15.70
2022-09-21T17:53:05.708Z,15.61
2022-09-21T17:55:32.424Z,15.50
2022-09-21T17:58:31.304Z,15.57
2022-09-21T18:01:09.574Z,15.46
2022-09-21T18:03:41.078Z,15.43
2022-09-21T18:06:09.536Z,15.38
2022-09-21T18:08:37.086Z,15.34
2022-09-21T18:11:16.283Z,15.26
2022-09-21T18:13:50.352Z,15.18
2022-09-21T18:16:19.703Z,15.16
2022-09-21T18:18:59.016Z,15.22
2022-09-21T18:21:27.768Z,15.27
2022-09-21T18:24:19.038Z,15.27
2022-09-21T18:26:46.066Z,15.15
2022-09-21T18:29:38.785Z,15.13
2022-09-21T18:32:28.369Z,15.16
2022-09-21T18:35:29.842Z,15.12
2022-09-21T18:38:08.250Z,15.04
2022-09-21T18:40:52.075Z,14.97
2022-09-21T18:43:40.050Z,14.96
2022-09-21T18:46:13.138Z,14.92
2022-09-21T18:48:50.610Z,14.87
2022-09-21T18:51:26.918Z,14.82
2022-09-21T18:53:57.691Z,14.82
2022-09-21T18:56:26.504Z,14.62
2022-09-21T18:58:53.172Z,14.52
2022-09-21T19:01:23.734Z,14.57
2022-09-21T19:03:51.027Z,14.56
2022-09-21T19:06:39.436Z,14.53
2022-09-21T19:09:20.786Z,14.49
2022-09-21T19:11:53.124Z,14.44
2022-09-21T19:14:48.677Z,14.49
2022-09-21T19:17:14.982Z,14.43
2022-09-21T19:20:02.422Z,14.39
2022-09-21T19:22:35.045Z,14.31
2022-09-21T19:25:11.838Z,14.34
2022-09-21T19:27:50.726Z,14.32
2022-09-21T19:30:17.645Z,14.20
2022-09-21T19:32:48.101Z,14.23
2022-09-21T19:35:31.780Z,14.23
2022-09-21T19:38:04.191Z,14.19
2022-09-21T19:40:39.448Z,14.14
2022-09-21T19:43:20.624Z,14.09
2022-09-21T19:46:05.986Z,14.01
2022-09-21T19:48:46.835Z,14.00
2022-09-21T19:51:24.161Z,14.00
2022-09-21T19:54:15.113Z,14.04
2022-09-21T19:57:09.766Z,13.95
2022-09-21T19:59:45.239Z,13.83
2022-09-21T20:02:29.178Z,13.85
2022-09-21T20:04:58.261Z,13.82
2022-09-21T20:07:45.125Z,13.80
2022-09-21T20:10:14.142Z,13.75
2022-09-21T20:13:06.614Z,13.76
2022-09-21T20:15:59.936Z,13.85
2022-09-21T20:19:00.176Z,13.75
2022-09-21T20:21:37.215Z,13.70
2022-09-21T20:24:14.051Z,13.63
2022-09-21T20:26:40.961Z,13.74
2022-09-21T20:29:08.434Z,13.69
2022-09-21T20:31:34.871Z,13.72
2022-09-21T20:34:01.249Z,13.63
2022-09-21T20:36:28.914Z,13.64
2022-09-21T20:38:56.751Z,13.69
2022-09-21T20:41:24.971Z,13.63
2022-09-21T20:43:51.490Z,13.53
2022-09-21T20:46:17.851Z,13.45
2022-09-21T20:48:44.294Z,13.48
2022-09-21T20:51:11.163Z,13.38
2022-09-21T20:53:39.962Z,13.43
2022-09-21T20:56:06.617Z,13.44
2022-09-21T20:58:33.493Z,13.38
2022-09-21T21:01:05.415Z,13.36
2022-09-21T21:03:31.938Z,13.26
2022-09-21T21:06:07.857Z,13.32
2022-09-21T21:08:34.231Z,13.30
2022-09-21T21:11:00.613Z,13.26
2022-09-21T21:13:30.174Z,13.25
2022-09-21T21:15:56.786Z,13.25
2022-09-21T21:18:23.166Z,13.23
2022-09-21T21:20:50.121Z,13.13
2022-09-21T21:23:16.556Z,13.18
2022-09-21T21:25:42.935Z,13.23
2022-09-21T21:28:09.375Z,13.19
2022-09-21T21:30:38.230Z,13.21
2022-09-21T21:33:05.532Z,13.14
2022-09-21T21:35:32.130Z,13.11
2022-09-21T21:37:58.892Z,13.05
2022-09-21T21:40:26.011Z,13.06
2022-09-21T21:42:54.603Z,12.96
2022-09-21T21:45:21.566Z,13.00
2022-09-21T21:47:47.917Z,12.91
2022-09-21T21:50:14.381Z,12.85
2022-09-21T21:52:40.767Z,12.87
2022-09-21T21:55:07.820Z,12.75
2022-09-21T21:57:34.746Z,12.77
2022-09-21T22:00:01.420Z,12.78
2022-09-21T22:02:29.257Z,12.77
2022-09-21T22:04:55.736Z,12.75
2022-09-21T22:07:22.113Z,12.77
2022-09-21T22:09:49.799Z,12.82
2022-09-21T22:12:16.363Z,12.83
2022-09-21T22:14:46.135Z,12.72
2022-09-21T22:17:12.493Z,12.69
2022-09-21T22:19:38.878Z,12.50
2022-09-21T22:22:05.231Z,12.48
2022-09-21T22:24:31.608Z,12.39
2022-09-21T22:26:57.998Z,12.42
2022-09-21T22:29:24.629Z,12.49
2022-09-21T22:31:51.635Z,12.40
2022-09-21T22:34:18.239Z,12.44
2022-09-21T22:36:44.734Z,12.57
2022-09-21T22:39:11.605Z,12.43
2022-09-21T22:41:40.770Z,12.44
2022-09-21T22:44:07.436Z,12.36
2022-09-21T22:46:34.496Z,12.31
2022-09-21T22:49:01.251Z,12.32
2022-09-21T22:51:28.645Z,12.33
2022-09-21T22:53:55.362Z,12.44
2022-09-21T22:56:24.528Z,12.37
2022-09-21T22:58:54.370Z,12.26
2022-09-21T23:01:24.994Z,12.24
2022-09-21T23:03:54.120Z,12.24
2022-09-21T23:06:23.093Z,12.19
2022-09-21T23:08:51.052Z,12.19
2022-09-21T23:11:21.934Z,12.18
2022-09-21T23:13:49.274Z,12.12
2022-09-21T23:16:16.941Z,12.17
2022-09-21T23:18:44.180Z,12.14
2022-09-21T23:21:13.303Z,12.10
2022-09-21T23:23:40.155Z,12.05
2022-09-21T23:26:06.474Z,12.03
2022-09-21T23:28:34.071Z,12.02
2022-09-21T23:31:02.187Z,12.08
2022-09-21T23:33:58.631Z,11.99
2022-09-21T23:36:27.937Z,12.00
2022-09-21T23:38:54.651Z,11.93
2022-09-21T23:41:29.326Z,11.95
2022-09-21T23:43:56.886Z,11.94
2022-09-21T23:46:28.313Z,11.88
2022-09-21T23:48:55.653Z,11.84
2022-09-21T23:51:22.275Z,11.84
2022-09-21T23:53:49.051Z,11.87
2022-09-21T23:56:18.164Z,11.81
2022-09-21T23:58:45.071Z,11.74
